• Join FlightAware (Why Join?)
  • Login
  • US Flag 
06:44PM EDT


 

Airport Tracker/Info


-or-


 

Live Flight TrackerFlight Track Log ✈ JUS327 ✈ 07-May-2013 ✈ KLRD - KELP

Flight Track Log - Related Links

Times and Time Zones

All times are in EDT time to prevent confusion due to time zone crossing. See the JUS327 flight status page for this flight to view local times or setup timezone preferences in your user account.

Time Position Orientation Groundspeed Altitude Reporting Facility
EDT Latitude Longitude Course Direction KTS MPH feet Rate Location/Type
02:44PM 27.5272 -99.4625 307° West 149 171 1,800  Level Houston Center
02:45PM 27.5175 -99.4233 106° East 184 212 3,000 1,440 Climbing Houston Center
02:46PM 27.5681 -99.4575 329° Northwest 224 258 4,800 2,640 Climbing Houston Center
02:47PM 27.6394 -99.5289 318° Northwest 262 302 8,500 3,180 Climbing Houston Center
02:48PM 27.8868 -99.9768 307° West  Level Estimated
02:48PM 27.7139 -99.5667 336° Northwest 282 325 11,400  Level Houston Center
02:49PM 27.9437 -100.0630 307° West  Level Estimated
02:49PM 27.7931 -99.6158 331° Northwest 319 367 14,200  Level Houston Center
02:50PM 27.8636 -99.6769 323° Northwest 323 372 17,600 2,700 Climbing Houston Center
02:51PM 27.9444 -99.7269 331° Northwest 329 379 19,800 2,280 Climbing Houston Center
02:52PM 28.0231 -99.7872 326° Northwest 343 395 22,400 2,040 Climbing Houston Center
02:54PM 28.1225 -99.8622 326° Northwest 356 410 24,100 1,500 Climbing Houston Center
02:55PM 28.2125 -99.9325 325° Northwest 388 447 25,500 1,620 Climbing Houston Center
02:56PM 28.3100 -99.9942 331° Northwest 398 458 27,500 1,740 Climbing Houston Center
02:57PM 28.4006 -100.0672 325° Northwest 400 460 29,100 1,320 Climbing Houston Center
02:58PM 28.4958 -100.1358 328° Northwest 404 465 30,300 1,320 Climbing Houston Center
02:59PM 28.5928 -100.2050 328° Northwest 410 472 31,900 1,560 Climbing Houston Center
03:00PM 28.7067 -100.2936 326° Northwest 405 466 33,600 960 Climbing Houston Center
03:01PM 28.8056 -100.3594 330° Northwest 411 473 34,000 180 Climbing Houston Center
03:02PM 28.8989 -100.4369 324° Northwest 414 476 34,000  Level Houston Center
03:03PM 28.9992 -100.5025 330° Northwest 415 478 34,000  Level Houston Center
03:04PM 29.0931 -100.5725 327° Northwest 402 463 34,000 -60 Level Houston Center
03:05PM 29.1850 -100.6481 324° Northwest 407 468 33,900  Descending Houston Center
03:06PM 29.3047 -100.7289 330° Northwest 413 475 34,000  Climbing Houston Center
03:07PM 29.3867 -100.8150 318° Northwest 403 464 34,000  Level Houston Center
03:08PM 29.4586 -100.9122 310° West 398 458 34,000  Level Houston Center
03:09PM 29.5353 -101.0078 313° West 405 466 34,000  Level Houston Center
03:10PM 29.6042 -101.1086 308° West 403 464 34,000  Level Houston Center
03:11PM 29.6794 -101.2050 312° West 404 465 34,000  Level Houston Center
03:12PM 29.7503 -101.3056 309° West 401 461 34,000  Level Houston Center
03:13PM 29.8392 -101.4236 311° West 406 467 34,000  Level Houston Center
03:14PM 29.9064 -101.5281 307° West 405 466 34,000  Level Houston Center
03:15PM 29.9383 -101.6514 287° West 402 463 34,000 -60 Level Houston Center
03:16PM 29.9875 -101.7675 296° West 405 466 33,900  Descending Houston Center
03:17PM 30.0458 -101.8786 301° West 405 466 34,000  Climbing Houston Center
03:18PM 30.0861 -101.9828 294° West 401 461 34,000  Level Albuquerque Center
03:19PM 30.1344 -102.0986 296° West 401 461 34,000  Level Albuquerque Center
03:20PM 30.1914 -102.2397 295° West 402 463 34,000  Level Albuquerque Center
03:21PM 30.2419 -102.3553 297° West 402 463 34,000  Level Albuquerque Center
03:22PM 30.2875 -102.4733 294° West 401 461 34,000  Level Albuquerque Center
03:23PM 30.3367 -102.5903 296° West 402 463 34,000  Level Albuquerque Center
03:24PM 30.3833 -102.7097 294° West 404 465 34,000  Level Albuquerque Center
03:25PM 30.4333 -102.8278 296° West 406 467 34,000  Level Albuquerque Center
03:26PM 30.4797 -102.9472 294° West 406 467 34,000  Level Albuquerque Center
03:27PM 30.5397 -103.0894 296° West 408 470 34,000  Level Albuquerque Center
03:29PM 30.5886 -103.2081 296° West 408 470 34,000  Level Albuquerque Center
03:30PM 30.6356 -103.3283 294° West 408 470 34,000  Level Albuquerque Center
03:31PM 30.6819 -103.4472 294° West 406 467 34,000  Level Albuquerque Center
03:32PM 30.7331 -103.5667 296° West 408 470 34,000  Level Albuquerque Center
03:33PM 30.7781 -103.6856 294° West 406 467 34,000  Level Albuquerque Center
03:34PM 30.8289 -103.8131 295° West 402 463 34,000  Level Albuquerque Center
03:35PM 30.8750 -103.9303 295° West 400 460 34,000 -60 Level Albuquerque Center
03:36PM 30.9203 -104.0464 294° West 397 457 33,900  Descending Albuquerque Center
03:37PM 30.9661 -104.1617 295° West 394 453 34,000  Climbing Albuquerque Center
03:38PM 31.0111 -104.2778 294° West 394 453 33,900  Descending Albuquerque Center
03:39PM 31.0642 -104.4183 294° West 396 456 34,000  Climbing Albuquerque Center
03:40PM 31.1108 -104.5356 295° West 399 459 33,900  Descending Albuquerque Center
03:41PM 31.1550 -104.6522 294° West 397 457 34,000 -300 Climbing Albuquerque Center
03:42PM 31.1769 -104.7775 282° West 397 457 33,300 -1,020 Descending Albuquerque Center
03:43PM 31.1919 -104.9053 278° West 401 461 31,900 -1,500 Descending Albuquerque Center
03:44PM 31.2094 -105.0353 279° West 408 470 30,300 -1,920 Descending Albuquerque Center
03:45PM 31.2442 -105.1867 285° West 408 470 28,000 -2,160 Descending Albuquerque Center
03:46PM 31.3081 -105.2922 305° West 402 463 25,900 -2,400 Descending Albuquerque Center
03:47PM 31.3747 -105.3861 310° West 380 437 23,100 -2,880 Descending Albuquerque Center
03:48PM 31.4186 -105.4894 296° West 356 410 20,100 -3,180 Descending Albuquerque Center
03:49PM 31.4478 -105.5711 293° West 340 391 17,700 -2,940 Descending Albuquerque Center
03:49PM 31.4556 -105.5908 295° West 340 391 17,100 -3,000 Descending Albuquerque Center
03:50PM 31.4872 -105.6683 296° West 334 384 14,700 -2,940 Descending Albuquerque Center
03:50PM 31.4981 -105.6875 304° West 334 384 14,100 -2,340 Descending Albuquerque Center
03:51PM 31.5289 -105.7525 299° West 324 373 12,600 -2,460 Descending Albuquerque Center
03:51PM 31.5475 -105.7956 297° West 312 359 11,600 -1,980 Descending Albuquerque Center
03:52PM 31.5664 -105.8403 296° West 303 349 10,600 -1,500 Descending Albuquerque Center
03:52PM 31.5825 -105.8797 296° West 292 336 10,100 -1,020 Descending Albuquerque Center
03:53PM 31.6025 -105.9183 301° West 271 312 9,600 -780 Descending Albuquerque Center
03:53PM 31.6225 -105.9522 305° West 267 307 9,300 -600 Descending Albuquerque Center
03:54PM 31.6489 -105.9967 305° West 273 314 9,000 -600 Descending Albuquerque Center
03:54PM 31.6650 -106.0281 301° West 276 318 8,700 -1,140 Descending Albuquerque Center
03:55PM 31.6883 -106.0717 302° West 271 312 7,900 -1,080 Descending Albuquerque Center
03:55PM 31.7036 -106.0997 303° West 263 303 7,600 -540 Descending Albuquerque Center
03:56PM 31.7253 -106.1447 300° West 264 304 7,400 -120 Descending Albuquerque Center
03:56PM 31.7411 -106.1742 302° West 264 304 7,500 -420 Climbing Albuquerque Center
03:57PM 31.7650 -106.2097 308° West 245 282 7,000 -900 Descending Albuquerque Center
03:57PM 31.7792 -106.2308 308° West 226 260 6,600 -1,440 Descending Albuquerque Center
03:58PM 31.7939 -106.2625 299° West 193 222 5,700 -1,560 Descending Albuquerque Center
03:58PM 31.7967 -106.2919 276° West 153 176 5,000 -900 Descending Albuquerque Center
03:59PM 31.7975 -106.3064 274° West 123 142 4,800 -600 Descending Albuquerque Center
03:59PM 31.7994 -106.3347 275° West 133 153 4,400 -600 Descending Albuquerque Center
04:00PM 31.7947 -106.3497 250° West 109 125 4,200 -540 Descending Albuquerque Center
04:00PM 31.8019 -106.3681 295° West 121 139 3,900 -480 Descending Albuquerque Center
04:02PM 31.8000 -106.3667 300° West  Level FlightAware Approximate
04:09PM 31.8072 -106.3764 300° West  Level Estimated
04:10PM 31.8072 -106.3764 300° West  Level Estimated
04:11PM 31.8072 -106.3764 300° West  Level Estimated
04:12PM 31.8072 -106.3764 300° West  Level Estimated
04:13PM 31.8072 -106.3764 300° West  Level Estimated
04:14PM 31.8072 -106.3764 300° West  Level Estimated
04:15PM 31.8072 -106.3764 300° West  Level Estimated